Time;durP1;ratioP1;P1;durP2;ratioP2;P2;SDS_P1;SDS_P2;PMS_P1;PMS_P2;Temp;Humidity;BMP_temperature;BMP_pressure;BME280_temperature;BME280_humidity;BME280_pressure;Samples;Min_cycle;Max_cycle;Signal;HPM_P1;HPM_P2
2023/10/13 00:00:40;;;;;;;10.23;8.65;;;11.40;99.90;;;;;;6451084;23;20012;-80
2023/10/13 00:03:18;;;;;;;12.00;10.68;;;11.50;99.90;;;;;;6436130;23;20325;-79
2023/10/13 00:05:52;;;;;;;13.95;12.65;;;11.20;99.90;;;;;;6436187;23;20000;-80
2023/10/13 00:08:23;;;;;;;16.15;14.85;;;11.00;99.90;;;;;;6462935;23;20052;-80
2023/10/13 00:11:02;;;;;;;16.05;14.40;;;11.20;99.90;;;;;;6436119;23;20039;-79
2023/10/13 00:13:52;;;;;;;15.55;13.20;;;11.20;99.90;;;;;;6436061;23;20007;-80
2023/10/13 00:16:28;;;;;;;13.90;12.73;;;11.30;99.90;;;;;;6463248;23;20004;-80
2023/10/13 00:18:59;;;;;;;13.38;12.18;;;11.10;99.90;;;;;;6462918;23;20023;-80
2023/10/13 00:21:33;;;;;;;13.10;11.90;;;11.00;99.90;;;;;;6435889;23;20000;-81
2023/10/13 00:24:12;;;;;;;13.23;11.80;;;11.00;99.90;;;;;;6462434;23;20000;-80
2023/10/13 00:26:43;;;;;;;13.85;12.30;;;11.10;99.90;;;;;;6462674;23;19996;-80
2023/10/13 00:29:16;;;;;;;14.10;12.70;;;11.20;99.90;;;;;;6435611;23;20373;-80
2023/10/13 00:31:48;;;;;;;14.77;13.48;;;11.20;99.90;;;;;;6462189;23;20095;-80
2023/10/13 00:34:29;;;;;;;15.93;14.15;;;11.30;99.90;;;;;;6462483;23;20004;-80
2023/10/13 00:37:18;;;;;;;15.45;13.95;;;11.10;99.90;;;;;;6462675;23;19996;-80
2023/10/13 00:39:56;;;;;;;13.60;12.23;;;11.20;99.90;;;;;;6462477;23;20337;-83
2023/10/13 00:42:47;;;;;;;14.25;12.75;;;11.00;99.90;;;;;;6435789;23;20329;-80
2023/10/13 00:45:18;;;;;;;14.32;12.88;;;10.90;99.90;;;;;;6462654;23;20027;-80
2023/10/13 00:47:50;;;;;;;13.57;12.27;;;10.90;99.90;;;;;;6462375;23;20004;-81
2023/10/13 00:50:21;;;;;;;13.30;10.40;;;11.10;99.90;;;;;;6462668;23;20000;-82
2023/10/13 00:52:52;;;;;;;11.05;9.90;;;10.90;99.90;;;;;;6462466;23;20004;-80
2023/10/13 00:55:23;;;;;;;11.85;10.77;;;11.00;99.90;;;;;;6462452;23;20003;-79
2023/10/13 00:57:57;;;;;;;14.50;11.73;;;11.00;99.90;;;;;;6462454;23;20045;-80
2023/10/13 01:00:28;;;;;;;10.35;9.35;;;11.00;99.90;;;;;;6462324;22;20015;-79
2023/10/13 01:03:06;;;;;;;11.02;8.27;;;11.00;99.90;;;;;;6462536;23;20007;-82
2023/10/13 01:05:39;;;;;;;8.75;7.85;;;11.00;99.90;;;;;;6462389;23;20004;-80
2023/10/13 01:08:10;;;;;;;11.25;9.73;;;10.70;99.90;;;;;;6460457;23;20015;-79
2023/10/13 01:10:42;;;;;;;9.00;8.10;;;10.80;99.90;;;;;;6435532;23;20004;-79
2023/10/13 01:13:13;;;;;;;11.57;9.13;;;10.70;99.90;;;;;;6462314;23;20011;-79
2023/10/13 01:15:46;;;;;;;13.00;9.02;;;10.90;99.90;;;;;;6462388;23;20004;-79
2023/10/13 01:18:17;;;;;;;14.18;10.18;;;10.80;99.90;;;;;;6462138;23;20008;-83
2023/10/13 01:20:52;;;;;;;13.32;9.80;;;11.00;99.90;;;;;;6461970;23;20674;-80
2023/10/13 01:23:28;;;;;;;10.82;8.90;;;10.80;99.90;;;;;;6462034;23;20000;-80
2023/10/13 01:26:04;;;;;;;11.20;9.35;;;11.00;99.90;;;;;;6462111;23;20356;-79
2023/10/13 01:28:44;;;;;;;10.88;8.13;;;10.70;99.90;;;;;;6461898;23;20502;-79
2023/10/13 01:31:25;;;;;;;9.77;8.70;;;10.70;99.90;;;;;;6489701;22;20016;-84
2023/10/13 01:34:00;;;;;;;14.30;9.30;;;10.90;99.90;;;;;;6493568;22;20383;-81
2023/10/13 01:36:36;;;;;;;12.93;8.98;;;10.80;99.90;;;;;;6493217;22;20002;-81
2023/10/13 01:39:10;;;;;;;15.82;8.70;;;10.80;99.90;;;;;;6493749;22;20000;-82
2023/10/13 01:41:42;;;;;;;14.20;9.27;;;10.80;99.90;;;;;;6494340;22;20376;-81
2023/10/13 01:44:14;;;;;;;12.40;9.40;;;10.80;99.90;;;;;;6494050;22;20074;-84
2023/10/13 01:46:47;;;;;;;10.27;8.05;;;10.70;99.90;;;;;;6493564;22;20004;-81
2023/10/13 01:49:18;;;;;;;10.48;7.50;;;10.60;99.90;;;;;;6493516;22;20011;-81
2023/10/13 01:51:49;;;;;;;13.45;8.60;;;10.50;99.90;;;;;;6493507;22;20049;-80
2023/10/13 01:54:21;;;;;;;14.15;8.70;;;10.60;99.90;;;;;;6493418;22;20371;-83
2023/10/13 01:56:52;;;;;;;10.23;7.75;;;10.50;99.90;;;;;;6492140;22;20004;-80
2023/10/13 01:59:23;;;;;;;13.98;8.80;;;10.40;99.90;;;;;;6493758;22;20069;-81
2023/10/13 02:01:57;;;;;;;12.38;8.10;;;10.40;99.90;;;;;;6466046;22;20058;-80
2023/10/13 02:04:28;;;;;;;11.65;8.43;;;10.50;99.90;;;;;;6485865;22;20062;-80
2023/10/13 02:06:59;;;;;;;12.20;9.02;;;10.50;99.90;;;;;;6461474;22;20340;-80
2023/10/13 02:09:30;;;;;;;12.95;8.10;;;10.40;99.90;;;;;;6460143;23;20523;-82
2023/10/13 02:12:01;;;;;;;11.18;7.50;;;10.50;99.90;;;;;;6461611;22;19996;-81
2023/10/13 02:14:32;;;;;;;13.05;7.40;;;10.50;99.90;;;;;;6460006;23;20015;-81
2023/10/13 02:17:13;;;;;;;12.68;7.57;;;10.40;99.90;;;;;;6485686;22;20320;-80
2023/10/13 02:19:45;;;;;;;13.07;8.35;;;10.40;99.90;;;;;;6461055;22;20007;-82
2023/10/13 02:22:31;;;;;;;15.38;8.18;;;10.30;99.90;;;;;;6461557;22;20027;-80
2023/10/13 02:25:05;;;;;;;10.88;7.28;;;10.30;99.90;;;;;;6461569;22;20000;-81
2023/10/13 02:27:40;;;;;;;12.27;8.38;;;10.40;99.90;;;;;;6461513;22;20008;-80
2023/10/13 02:30:13;;;;;;;14.68;8.35;;;10.30;99.90;;;;;;6459761;22;20008;-80
2023/10/13 02:32:44;;;;;;;12.95;8.50;;;10.30;99.90;;;;;;6485482;22;20012;-80
2023/10/13 02:35:17;;;;;;;12.02;9.05;;;10.40;99.90;;;;;;6461620;22;20004;-80
2023/10/13 02:37:54;;;;;;;12.93;8.23;;;10.40;99.90;;;;;;6461577;22;20014;-81
2023/10/13 02:40:25;;;;;;;13.18;8.57;;;;;;;;;;6461780;22;20011;-82
2023/10/13 02:42:57;;;;;;;12.85;8.10;;;;;;;;;;6461576;22;20005;-80
2023/10/13 02:45:28;;;;;;;11.55;7.80;;;;;;;;;;6461653;22;20000;-81
2023/10/13 02:48:13;;;;;;;13.13;7.95;;;10.40;99.90;;;;;;6461417;23;20043;-81
2023/10/13 02:50:45;;;;;;;12.23;8.32;;;10.20;99.90;;;;;;6485618;22;20011;-81
2023/10/13 02:53:18;;;;;;;13.73;8.48;;;10.00;99.90;;;;;;6461897;22;20015;-83
2023/10/13 02:55:55;;;;;;;13.85;8.77;;;10.30;99.90;;;;;;6461520;22;20004;-80
2023/10/13 02:58:37;;;;;;;14.98;8.52;;;10.20;99.90;;;;;;6461883;22;20079;-80
2023/10/13 03:01:16;;;;;;;13.25;7.70;;;10.10;99.90;;;;;;6461348;22;20472;-80
2023/10/13 03:03:54;;;;;;;14.52;8.35;;;10.10;99.90;;;;;;6461755;22;20004;-81
2023/10/13 03:06:32;;;;;;;12.30;7.88;;;10.00;99.90;;;;;;6461370;22;20000;-80
2023/10/13 03:09:14;;;;;;;15.27;7.82;;;10.20;99.90;;;;;;6461116;22;20062;-80
2023/10/13 03:11:49;;;;;;;14.85;8.85;;;10.10;99.90;;;;;;6460044;23;20046;-81
2023/10/13 03:17:22;;;;;;;13.50;8.02;;;10.10;99.90;;;;;;6472165;22;20047;-80
2023/10/13 03:19:54;;;;;;;13.75;8.93;;;10.10;99.90;;;;;;6460739;22;20087;-80
2023/10/13 03:22:32;;;;;;;13.27;8.82;;;10.10;99.90;;;;;;6461393;22;20004;-81
2023/10/13 03:25:05;;;;;;;14.88;8.55;;;9.90;99.90;;;;;;6461252;22;20000;-80
2023/10/13 03:28:01;;;;;;;11.93;8.15;;;9.90;99.90;;;;;;6461028;22;20042;-81
2023/10/13 03:30:44;;;;;;;12.95;8.68;;;10.00;99.90;;;;;;6461662;22;20024;-81
2023/10/13 03:33:25;;;;;;;14.23;8.88;;;9.90;99.90;;;;;;6463408;22;20027;-81
2023/10/13 03:36:05;;;;;;;11.52;8.23;;;10.00;99.90;;;;;;6463393;22;20008;-81
2023/10/13 03:38:36;;;;;;;14.43;8.57;;;10.00;99.90;;;;;;6463310;22;19996;-81
2023/10/13 03:41:08;;;;;;;15.68;9.93;;;9.80;99.90;;;;;;6463222;22;20111;-80
2023/10/13 03:43:45;;;;;;;12.88;9.23;;;9.90;99.90;;;;;;6463189;22;20001;-82
2023/10/13 03:46:21;;;;;;;16.23;9.00;;;9.90;99.90;;;;;;6463424;22;20027;-82
2023/10/13 03:48:53;;;;;;;13.13;8.80;;;10.00;99.90;;;;;;6463207;22;20095;-81
2023/10/13 03:51:30;;;;;;;14.02;8.90;;;9.90;99.90;;;;;;6463145;22;20020;-81
2023/10/13 03:54:07;;;;;;;12.13;8.15;;;9.90;99.90;;;;;;6463167;22;20004;-80
2023/10/13 03:59:17;;;;;;;13.18;9.48;;;9.90;99.90;;;;;;6463265;22;20015;-81
2023/10/13 04:04:48;;;;;;;14.10;8.50;;;10.00;99.90;;;;;;6463584;22;20000;-81
2023/10/13 04:19:03;;;;;;;15.93;10.43;;;9.80;99.90;;;;;;6430737;22;20003;-81
2023/10/13 04:21:56;;;;;;;17.42;9.70;;;9.90;99.90;;;;;;6461185;23;20083;-82
2023/10/13 04:32:28;;;;;;;18.02;11.75;;;9.60;99.90;;;;;;6462814;23;20019;-81
2023/10/13 04:35:17;;;;;;;;;;;9.70;99.90;;;;;;6461557;23;20016;-81
2023/10/13 04:37:50;;;;;;;15.57;12.35;;;9.70;99.90;;;;;;6462753;22;20374;-80
2023/10/13 04:40:34;;;;;;;19.35;13.43;;;9.70;99.90;;;;;;6462527;23;20003;-80
2023/10/13 04:43:32;;;;;;;16.02;13.27;;;9.70;99.90;;;;;;6462197;23;20012;-81
2023/10/13 04:46:25;;;;;;;18.23;14.73;;;9.70;99.90;;;;;;6462302;23;19997;-81
2023/10/13 04:48:59;;;;;;;14.73;12.50;;;9.80;99.90;;;;;;6462236;23;20012;-81
2023/10/13 04:54:26;;;;;;;17.67;13.23;;;10.00;99.90;;;;;;6462456;23;20042;-80
2023/10/13 04:57:21;;;;;;;19.52;12.75;;;9.80;99.90;;;;;;6462496;23;20001;-81
2023/10/13 05:48:01;;;;;;;29.52;15.70;;;12.00;99.90;;;;;;6461815;23;20012;-81
2023/10/13 05:50:57;;;;;;;24.17;17.30;;;12.40;99.90;;;;;;6460393;23;20004;-81
2023/10/13 06:30:05;;;;;;;35.38;31.80;;;14.40;99.90;;;;;;6461607;22;20078;-82
2023/10/13 06:32:39;;;;;;;33.20;30.00;;;14.40;99.90;;;;;;6459898;23;20020;-81
2023/10/13 06:35:22;;;;;;;29.08;26.02;;;14.60;99.90;;;;;;6461653;23;20080;-80
2023/10/13 06:37:53;;;;;;;28.63;23.52;;;14.90;99.90;;;;;;6461549;23;20000;-80
2023/10/13 06:40:33;;;;;;;28.33;21.17;;;15.10;99.90;;;;;;6459988;23;20004;-84
2023/10/13 06:43:16;;;;;;;25.15;18.35;;;15.00;99.90;;;;;;6459937;23;20369;-81
2023/10/13 06:46:00;;;;;;;20.02;16.13;;;15.10;99.90;;;;;;6461762;23;20023;-82
2023/10/13 06:48:34;;;;;;;20.83;14.70;;;15.40;99.90;;;;;;6459879;23;20015;-80
2023/10/13 06:51:17;;;;;;;20.73;13.00;;;15.70;99.90;;;;;;6461413;23;20320;-81
2023/10/13 06:53:49;;;;;;;21.27;13.77;;;15.90;99.90;;;;;;6461542;23;20031;-81
2023/10/13 06:56:29;;;;;;;18.20;11.98;;;16.00;99.90;;;;;;6460149;23;20042;-81
2023/10/13 06:58:59;;;;;;;14.60;10.70;;;16.30;99.90;;;;;;6461669;23;20008;-81
2023/10/13 07:01:38;;;;;;;13.40;9.98;;;16.40;99.90;;;;;;6461405;23;20014;-82
2023/10/13 07:04:13;;;;;;;13.43;8.95;;;16.60;99.90;;;;;;6461597;22;20000;-81
2023/10/13 07:06:48;;;;;;;10.73;8.43;;;16.80;99.90;;;;;;6487168;22;20038;-84
2023/10/13 07:09:39;;;;;;;11.38;7.68;;;16.90;99.90;;;;;;6487153;22;20016;-81
2023/10/13 07:12:16;;;;;;;10.90;9.38;;;17.20;99.90;;;;;;6463456;22;19996;-82
2023/10/13 07:17:55;;;;;;;10.60;8.30;;;17.80;99.90;;;;;;6367642;23;20006;-82
2023/10/13 07:23:03;;;;;;;8.25;6.85;;;18.10;99.90;;;;;;6463312;22;20083;-81
2023/10/13 07:25:37;;;;;;;11.20;7.38;;;18.10;99.90;;;;;;6487514;22;20000;-82
2023/10/13 07:28:08;;;;;;;7.82;7.03;;;18.40;99.90;;;;;;6463219;22;20004;-81
2023/10/13 07:30:49;;;;;;;9.88;6.35;;;18.50;99.90;;;;;;6461108;23;20024;-81
2023/10/13 07:33:20;;;;;;;7.72;6.20;;;18.70;99.90;;;;;;6463173;22;20035;-81
2023/10/13 07:39:20;;;;;;;8.82;6.90;;;18.90;99.90;;;;;;6412284;22;20000;-81
2023/10/13 07:42:39;;;;;;;9.93;7.40;;;19.10;99.90;;;;;;6463268;22;20011;-81
2023/10/13 07:44:46;;;;;;;7.40;5.43;;;19.20;99.90;;;;;;6452240;23;20420;-85
2023/10/13 07:47:20;;;;;;;8.95;6.00;;;19.00;99.90;;;;;;6460983;23;20015;-82
2023/10/13 07:49:51;;;;;;;10.82;7.03;;;19.30;99.90;;;;;;6462816;22;20012;-83
2023/10/13 07:54:59;;;;;;;8.38;7.47;;;19.50;99.90;;;;;;6462616;22;20043;-82
2023/10/13 07:57:30;;;;;;;9.38;8.48;;;19.70;99.90;;;;;;6462865;22;20047;-82
2023/10/13 08:00:11;;;;;;;10.95;9.93;;;19.70;99.90;;;;;;6462872;22;20008;-82
2023/10/13 08:02:48;;;;;;;10.70;9.55;;;20.00;99.90;;;;;;6462845;22;20004;-82
2023/10/13 08:05:55;;;;;;;11.07;10.18;;;20.20;99.90;;;;;;6461417;23;20341;-86
2023/10/13 08:08:14;;;;;;;11.02;10.13;;;20.20;99.90;;;;;;6461587;23;20013;-82
2023/10/13 08:10:45;;;;;;;12.20;11.05;;;20.30;99.90;;;;;;6462902;23;20024;-82
2023/10/13 08:13:18;;;;;;;10.93;9.75;;;20.70;99.90;;;;;;6461358;23;20011;-82
2023/10/13 08:15:53;;;;;;;13.35;11.20;;;20.60;99.90;;;;;;6462858;22;20057;-82
2023/10/13 08:18:33;;;;;;;11.65;10.60;;;20.80;99.90;;;;;;6461677;23;20015;-83
2023/10/13 08:21:04;;;;;;;10.82;9.75;;;20.90;99.90;;;;;;6461367;23;20004;-82
2023/10/13 08:26:30;;;;;;;9.40;8.50;;;21.10;99.90;;;;;;6462714;22;20005;-82
2023/10/13 08:37:46;;;;;;;9.32;7.53;;;21.20;99.90;;;;;;6473318;22;20003;-85
2023/10/13 08:53:31;;;;;;;10.68;8.43;;;22.50;99.90;;;;;;6462364;22;20432;-83
2023/10/13 09:01:35;;;;;;;7.70;7.00;;;22.70;99.90;;;;;;6464549;22;20042;-83
2023/10/13 09:04:22;;;;;;;7.80;6.53;;;22.80;99.90;;;;;;6486311;22;20040;-83
2023/10/13 09:09:35;;;;;;;8.88;5.05;;;23.10;99.90;;;;;;6472901;22;20016;-83
2023/10/13 09:12:14;;;;;;;9.15;5.40;;;23.40;99.90;;;;;;6460801;23;20007;-83
2023/10/13 09:14:57;;;;;;;8.35;5.38;;;22.90;99.90;;;;;;6486325;22;20008;-83
2023/10/13 09:21:16;;;;;;;7.22;4.93;;;23.10;99.90;;;;;;6472870;22;20412;-83
2023/10/13 09:23:28;;;;;;;6.70;5.10;;;23.40;99.90;;;;;;6454553;22;20004;-85
2023/10/13 09:26:12;;;;;;;6.50;4.80;;;23.70;99.90;;;;;;6460603;22;20004;-83
2023/10/13 09:28:44;;;;;;;8.45;5.10;;;23.70;99.90;;;;;;6462037;22;20040;-85
2023/10/13 09:31:26;;;;;;;7.68;4.80;;;23.60;99.90;;;;;;6485751;22;20020;-83
2023/10/13 09:33:58;;;;;;;6.70;5.20;;;23.60;99.90;;;;;;6462182;22;20685;-83
2023/10/13 09:36:29;;;;;;;8.23;5.13;;;23.90;99.90;;;;;;6460806;23;20036;-84
2023/10/13 09:39:29;;;;;;;6.15;5.53;;;24.10;99.90;;;;;;6460386;23;20012;-83
2023/10/13 09:42:00;;;;;;;7.82;5.05;;;24.20;99.90;;;;;;6461987;22;20039;-83
2023/10/13 09:44:31;;;;;;;6.47;5.15;;;24.30;99.90;;;;;;6462013;22;20000;-83
2023/10/13 09:47:16;;;;;;;6.10;4.78;;;24.50;99.90;;;;;;6461477;22;20046;-83
2023/10/13 09:49:51;;;;;;;7.97;5.00;;;24.70;99.90;;;;;;6485615;22;20016;-85
2023/10/13 09:52:25;;;;;;;5.63;5.10;;;24.80;99.90;;;;;;6485822;22;20001;-86
2023/10/13 09:55:11;;;;;;;6.55;5.93;;;25.00;99.90;;;;;;6461679;22;20026;-85
2023/10/13 09:57:57;;;;;;;7.90;6.97;;;24.80;99.90;;;;;;6482248;22;20034;-84
2023/10/13 10:06:30;;;;;;;8.57;7.85;;;25.00;99.90;;;;;;6396922;23;20001;-84
2023/10/13 10:09:11;;;;;;;8.55;7.80;;;24.40;99.90;;;;;;6455396;22;20062;-81
2023/10/13 10:12:04;;;;;;;8.65;7.70;;;25.00;99.90;;;;;;6466502;22;20432;-83
2023/10/13 10:14:41;;;;;;;7.93;7.25;;;25.00;99.90;;;;;;6493491;22;20049;-82
2023/10/13 10:17:14;;;;;;;8.82;8.25;;;24.70;99.90;;;;;;6493425;22;20420;-82
2023/10/13 10:19:47;;;;;;;7.97;7.20;;;25.20;99.90;;;;;;6492984;22;20003;-85
2023/10/13 10:22:39;;;;;;;9.27;8.48;;;25.30;99.90;;;;;;6493425;22;20015;-82
2023/10/13 10:25:25;;;;;;;7.70;7.00;;;25.60;99.90;;;;;;6466316;22;20434;-83
2023/10/13 10:27:58;;;;;;;9.68;8.73;;;25.80;99.90;;;;;;6471448;22;20008;-81
2023/10/13 10:30:30;;;;;;;7.13;6.28;;;26.10;99.90;;;;;;6461522;23;20459;-81
2023/10/13 10:33:12;;;;;;;6.15;5.55;;;26.00;99.90;;;;;;6462149;23;20000;-81
2023/10/13 10:35:45;;;;;;;9.80;5.78;;;25.60;99.90;;;;;;6461882;23;20007;-82
2023/10/13 10:41:04;;;;;;;6.82;5.07;;;26.20;99.90;;;;;;6473405;23;20008;-82
2023/10/13 10:43:45;;;;;;;6.95;5.18;;;26.30;99.90;;;;;;6463750;23;20501;-81
2023/10/13 10:46:18;;;;;;;6.85;5.90;;;26.40;99.90;;;;;;6462207;23;20054;-82
2023/10/13 10:48:56;;;;;;;5.85;5.32;;;26.20;99.90;;;;;;6436720;23;20016;-82
2023/10/13 10:51:31;;;;;;;8.43;5.60;;;26.30;99.90;;;;;;6463701;23;20652;-82
2023/10/13 10:54:11;;;;;;;7.75;5.53;;;26.40;99.90;;;;;;6436815;23;20036;-82
2023/10/13 10:56:42;;;;;;;6.45;5.07;;;26.20;99.90;;;;;;6461739;23;20062;-82
2023/10/13 10:59:21;;;;;;;6.03;5.43;;;26.30;99.90;;;;;;6463152;23;20034;-85
2023/10/13 11:01:52;;;;;;;7.30;5.05;;;26.70;99.90;;;;;;6436661;23;20039;-82
2023/10/13 11:06:56;;;;;;;4.63;4.03;;;25.80;99.90;;;;;;6463777;23;20004;-82
2023/10/13 11:09:31;;;;;;;6.95;4.45;;;25.80;99.90;;;;;;6436632;23;20012;-82
2023/10/13 11:12:15;;;;;;;11.15;4.22;;;26.20;99.90;;;;;;6463516;23;20628;-83
2023/10/13 11:14:50;;;;;;;5.10;4.70;;;26.40;99.90;;;;;;6463491;23;20030;-81
2023/10/13 11:17:33;;;;;;;9.23;5.07;;;26.50;99.90;;;;;;6463423;23;19996;-84
2023/10/13 11:20:17;;;;;;;6.80;4.03;;;26.60;99.90;;;;;;6463530;23;20000;-81
2023/10/13 11:22:49;;;;;;;6.43;4.45;;;26.80;99.90;;;;;;6463612;23;20050;-82
2023/10/13 11:25:22;;;;;;;8.25;4.60;;;26.80;99.90;;;;;;6463479;23;20069;-82
2023/10/13 11:33:08;;;;;;;5.43;4.55;;;26.70;99.90;;;;;;6473931;23;20550;-81
2023/10/13 11:35:54;;;;;;;7.60;5.38;;;26.80;99.90;;;;;;6461702;23;20004;-81
2023/10/13 11:38:42;;;;;;;6.07;4.85;;;27.10;99.90;;;;;;6461683;23;20077;-81
2023/10/13 11:41:18;;;;;;;6.57;5.57;;;27.00;99.90;;;;;;6463345;23;20004;-81
2023/10/13 11:49:18;;;;;;;6.57;4.63;;;27.00;99.90;;;;;;6473553;23;20318;-84
2023/10/13 11:51:51;;;;;;;4.65;4.25;;;27.10;99.90;;;;;;6461907;23;20487;-86
2023/10/13 11:54:23;;;;;;;8.02;6.13;;;27.10;99.90;;;;;;6435862;23;20100;-83
2023/10/13 11:56:58;;;;;;;6.35;5.72;;;26.70;99.90;;;;;;6461686;22;20043;-80
2023/10/13 11:59:29;;;;;;;7.53;6.50;;;27.10;99.90;;;;;;6411318;23;20012;-81
2023/10/13 12:04:54;;;;;;;7.07;5.05;;;27.10;99.90;;;;;;6462801;23;20018;-90
2023/10/13 12:07:45;;;;;;;8.05;5.15;;;26.90;99.90;;;;;;6463418;23;20332;-83
2023/10/13 12:10:20;;;;;;;6.97;4.88;;;27.10;99.90;;;;;;6435873;23;20012;-83
2023/10/13 12:12:54;;;;;;;8.10;4.82;;;26.80;99.90;;;;;;6436110;23;20008;-82
2023/10/13 12:15:25;;;;;;;10.32;4.88;;;26.90;99.90;;;;;;6462744;23;20004;-82
2023/10/13 12:17:57;;;;;;;5.85;5.35;;;27.00;99.90;;;;;;6462876;23;20007;-82
2023/10/13 12:20:35;;;;;;;6.45;5.70;;;27.30;99.90;;;;;;6435907;23;20004;-82
2023/10/13 12:23:09;;;;;;;6.53;5.85;;;27.30;99.90;;;;;;6435614;23;20000;-84
2023/10/13 12:25:54;;;;;;;5.82;4.97;;;27.20;99.90;;;;;;6435843;23;20004;-84
2023/10/13 12:28:26;;;;;;;6.95;5.25;;;27.00;99.90;;;;;;6462581;23;20011;-82
2023/10/13 12:31:08;;;;;;;5.40;4.90;;;26.70;99.90;;;;;;6462697;23;20020;-82
2023/10/13 12:33:41;;;;;;;8.00;4.93;;;26.80;99.90;;;;;;6460778;23;20336;-86
2023/10/13 12:48:55;;;;;;;8.88;4.65;;;27.00;99.90;;;;;;6472776;23;20328;-84
2023/10/13 12:50:24;;;;;;;9.75;5.25;;;26.60;99.90;;;;;;6462287;23;20502;-83
2023/10/13 12:52:56;;;;;;;9.13;5.63;;;26.80;99.90;;;;;;6462331;23;20640;-82
2023/10/13 12:55:27;;;;;;;7.45;4.93;;;26.60;99.90;;;;;;6435706;23;20012;-81
2023/10/13 12:57:58;;;;;;;6.72;4.95;;;26.70;99.90;;;;;;6434732;23;20466;-82
2023/10/13 13:00:33;;;;;;;7.68;4.63;;;26.80;99.90;;;;;;6460690;23;20420;-88
2023/10/13 13:03:11;;;;;;;11.98;7.05;;;26.40;99.90;;;;;;6460359;23;20001;-82
2023/10/13 13:05:44;;;;;;;6.35;4.65;;;26.30;99.90;;;;;;6462672;23;20302;-82
2023/10/13 13:08:21;;;;;;;7.82;5.15;;;26.30;99.90;;;;;;6462413;23;20012;-84
2023/10/13 13:10:52;;;;;;;8.70;5.35;;;25.90;99.90;;;;;;6460585;23;20000;-82
2023/10/13 13:13:24;;;;;;;7.63;5.25;;;25.90;99.90;;;;;;6461883;23;20011;-81
2023/10/13 13:15:56;;;;;;;11.98;5.10;;;26.00;99.90;;;;;;6462019;23;20078;-83
2023/10/13 13:18:27;;;;;;;7.32;5.15;;;26.20;99.90;;;;;;6462420;23;20421;-81
2023/10/13 13:21:00;;;;;;;5.72;5.22;;;26.10;99.90;;;;;;6462414;23;19996;-81
2023/10/13 13:23:31;;;;;;;6.43;5.53;;;26.10;99.90;;;;;;6435518;23;20419;-82
2023/10/13 13:26:04;;;;;;;10.05;5.60;;;26.20;99.90;;;;;;6460659;22;20039;-82
2023/10/13 13:28:37;;;;;;;5.25;4.75;;;25.30;99.90;;;;;;6462062;23;20341;-81
2023/10/13 13:31:09;;;;;;;8.95;5.15;;;25.80;99.90;;;;;;6461709;23;20000;-81
2023/10/13 13:33:43;;;;;;;8.77;5.68;;;25.50;99.90;;;;;;6434818;23;20004;-82
2023/10/13 13:36:15;;;;;;;7.25;5.68;;;25.40;99.90;;;;;;6460495;23;20680;-80
2023/10/13 13:38:46;;;;;;;8.25;5.03;;;25.40;99.90;;;;;;6460513;23;20011;-81
2023/10/13 13:41:18;;;;;;;7.10;4.57;;;25.40;99.90;;;;;;6461990;23;20000;-81
2023/10/13 13:46:27;;;;;;;5.63;4.78;;;24.70;99.90;;;;;;6462174;23;20426;-81
2023/10/13 13:48:59;;;;;;;5.70;4.50;;;24.90;99.90;;;;;;6434816;23;20012;-81
2023/10/13 13:51:32;;;;;;;8.70;4.95;;;25.10;99.90;;;;;;6461726;23;20000;-80
2023/10/13 13:54:06;;;;;;;6.07;5.07;;;24.70;99.90;;;;;;6434956;23;20022;-81
2023/10/13 13:56:39;;;;;;;6.00;4.65;;;24.60;99.90;;;;;;6434554;23;20019;-81
2023/10/13 13:59:15;;;;;;;5.85;5.00;;;24.50;99.90;;;;;;6435207;23;20429;-81
2023/10/13 14:01:46;;;;;;;6.07;4.47;;;24.30;99.90;;;;;;6460158;23;20440;-81
2023/10/13 14:04:17;;;;;;;8.00;4.75;;;24.00;99.90;;;;;;6461220;23;20004;-81
2023/10/13 14:06:50;;;;;;;5.85;4.90;;;24.20;99.90;;;;;;6461514;23;20046;-81
2023/10/13 14:09:35;;;;;;;9.15;5.00;;;24.20;99.90;;;;;;6461650;23;20008;-81
2023/10/13 14:14:56;;;;;;;6.28;5.68;;;23.70;99.90;;;;;;6461319;23;20008;-81
2023/10/13 14:17:33;;;;;;;10.52;5.32;;;23.60;99.90;;;;;;6461750;23;20000;-81
2023/10/13 14:20:15;;;;;;;6.32;4.82;;;23.40;99.90;;;;;;6461735;23;20007;-81
2023/10/13 14:22:49;;;;;;;9.38;5.22;;;23.40;99.90;;;;;;6434623;23;20000;-81
2023/10/13 14:25:24;;;;;;;22.23;4.65;;;23.60;99.90;;;;;;6434584;23;20012;-82
2023/10/13 14:27:58;;;;;;;18.58;6.07;;;23.50;99.90;;;;;;6459434;23;20023;-82
2023/10/13 14:30:31;;;;;;;12.38;6.88;;;24.00;99.90;;;;;;6461250;23;19997;-83
2023/10/13 14:33:02;;;;;;;9.18;6.80;;;24.50;99.90;;;;;;6461151;23;20482;-82
2023/10/13 14:35:36;;;;;;;10.57;5.60;;;26.50;99.90;;;;;;6459741;23;20004;-82
2023/10/13 14:38:07;;;;;;;9.90;6.75;;;23.80;99.90;;;;;;6433989;23;20008;-80
2023/10/13 14:40:38;;;;;;;6.28;4.80;;;23.20;99.90;;;;;;6459420;23;20007;-82
2023/10/13 14:43:08;;;;;;;11.10;4.70;;;22.40;99.90;;;;;;6460710;23;20310;-82
2023/10/13 14:45:39;;;;;;;6.93;5.22;;;22.20;99.90;;;;;;6460774;23;20065;-81
2023/10/13 14:48:12;;;;;;;8.98;5.53;;;21.30;99.90;;;;;;6459787;23;20514;-81
2023/10/13 14:50:43;;;;;;;7.35;4.60;;;21.60;99.90;;;;;;6461252;23;20000;-81
2023/10/13 14:53:19;;;;;;;6.20;5.20;;;21.00;99.90;;;;;;6434417;23;20506;-81
2023/10/13 14:55:51;;;;;;;9.98;6.32;;;20.80;99.90;;;;;;6461289;22;20032;-81
2023/10/13 14:58:26;;;;;;;15.73;14.05;;;21.10;99.90;;;;;;6461288;23;20043;-80
2023/10/13 15:00:58;;;;;;;13.15;11.88;;;20.70;99.90;;;;;;6434582;23;20435;-81
2023/10/13 15:03:32;;;;;;;10.10;7.93;;;20.70;99.90;;;;;;6461326;23;20000;-81
2023/10/13 15:06:03;;;;;;;12.52;11.48;;;20.10;99.90;;;;;;6459544;23;20000;-81
2023/10/13 15:08:33;;;;;;;10.40;9.20;;;20.10;99.90;;;;;;6434359;23;20506;-80
2023/10/13 15:11:14;;;;;;;8.85;8.10;;;19.50;99.90;;;;;;6434089;23;20004;-80
2023/10/13 15:13:48;;;;;;;10.65;8.68;;;19.30;99.90;;;;;;6461292;23;20325;-79
2023/10/13 15:16:28;;;;;;;14.55;9.45;;;19.70;99.90;;;;;;6434754;23;20058;-80
2023/10/13 15:19:00;;;;;;;8.30;6.50;;;19.40;99.90;;;;;;6461519;23;20001;-80
2023/10/13 15:21:36;;;;;;;10.45;7.95;;;19.40;99.90;;;;;;6461070;23;20001;-80
2023/10/13 15:24:14;;;;;;;8.77;7.88;;;19.60;99.90;;;;;;6461209;23;20067;-81
2023/10/13 15:26:47;;;;;;;7.90;7.20;;;19.70;99.90;;;;;;6462193;22;20044;-81
2023/10/13 15:29:25;;;;;;;7.45;6.80;;;19.60;99.90;;;;;;6436504;23;20463;-81
2023/10/13 15:34:30;;;;;;;38.38;24.60;;;19.40;99.90;;;;;;6463510;23;20011;-81
2023/10/13 15:37:04;;;;;;;14.25;10.07;;;19.70;99.90;;;;;;6436014;23;20432;-82
2023/10/13 15:39:36;;;;;;;13.30;10.57;;;19.20;99.90;;;;;;6463055;23;20000;-79
2023/10/13 15:42:09;;;;;;;13.73;7.15;;;18.80;99.90;;;;;;6463032;23;20008;-80
2023/10/13 15:44:43;;;;;;;7.53;6.88;;;18.50;99.90;;;;;;6462984;23;20007;-80
